Station Historical Data
Daily Summary for January 4, 2017 Units:  English    Metric   Both
« Previous Day
Next Day »
Daily Weekly Monthly Yearly Custom
  High: Low: Average:
Temperature: 40.3 °F 18.1 °F 29.5 °F
Dew Point: 39.0 °F 5.8 °F 23.5 °F
Humidity: 95% 57% 79%
Wind Speed: 25.0mph 2.0mph 9.8mph
Wind Gust: 33.0mph - -
Wind- - West
Pressure: 29.78 in 29.44 in -
Precipitation: 0.00 in    
Historical Graphs
 
 
Tabular Data for January 4, 2017
Time Temperature Dew Point Pressure Wind Wind Speed Wind Gust Humidity Rainfall Rate (Hourly)
00:04 40.3 °F 39.0 °F 29.44 in SW 4.0 mph 5.0 mph 95% 0.00 in
00:09 40.2 °F 38.9 °F 29.44 in WSW 2.0 mph 5.0 mph 95% 0.01 in
00:14 40.2 °F 38.9 °F 29.44 in WSW 4.0 mph 5.0 mph 95% 0.01 in
00:19 40.3 °F 39.0 °F 29.45 in WSW 6.0 mph 7.0 mph 95% 0.01 in
00:24 40.2 °F 38.9 °F 29.45 in WSW 4.0 mph 7.0 mph 95% 0.01 in
00:29 40.2 °F 38.9 °F 29.45 in WSW 4.0 mph 7.0 mph 95% 0.01 in
00:34 40.1 °F 38.8 °F 29.45 in West 3.0 mph 7.0 mph 95% 0.01 in
00:39 40.1 °F 38.8 °F 29.45 in WSW 3.0 mph 9.0 mph 95% 0.01 in
00:44 40.0 °F 38.7 °F 29.44 in West 3.0 mph 9.0 mph 95% 0.01 in
00:49 39.9 °F 38.6 °F 29.44 in WSW 4.0 mph 14.0 mph 95% 0.01 in
00:54 39.8 °F 38.5 °F 29.44 in West 3.0 mph 9.0 mph 95% 0.01 in
00:59 39.7 °F 38.4 °F 29.44 in West 6.0 mph 10.0 mph 95% 0.01 in
01:04 39.7 °F 38.4 °F 29.44 in WSW 4.0 mph 10.0 mph 95% 0.01 in
01:09 39.6 °F 38.3 °F 29.44 in West 5.0 mph 11.0 mph 95% 0.00 in
01:14 39.6 °F 38.3 °F 29.44 in West 4.0 mph 7.0 mph 95% 0.00 in
01:19 39.5 °F 38.2 °F 29.44 in WSW 6.0 mph 12.0 mph 95% 0.00 in
01:24 39.4 °F 38.1 °F 29.44 in West 3.0 mph 10.0 mph 95% 0.00 in
01:29 39.3 °F 38.0 °F 29.44 in West 5.0 mph 10.0 mph 95% 0.00 in
01:34 39.3 °F 38.0 °F 29.45 in SW 5.0 mph 11.0 mph 95% 0.00 in
01:39 39.2 °F 37.9 °F 29.45 in SW 6.0 mph 10.0 mph 95% 0.00 in
01:44 39.1 °F 37.8 °F 29.45 in WSW 7.0 mph 12.0 mph 95% 0.00 in
01:49 38.9 °F 37.6 °F 29.45 in WSW 6.0 mph 12.0 mph 95% 0.00 in
01:54 38.6 °F 37.3 °F 29.45 in West 5.0 mph 13.0 mph 95% 0.00 in
01:59 38.5 °F 37.2 °F 29.45 in SW 6.0 mph 11.0 mph 95% 0.00 in
02:04 38.4 °F 37.1 °F 29.46 in WSW 7.0 mph 13.0 mph 95% 0.00 in
02:09 38.2 °F 36.9 °F 29.46 in West 9.0 mph 13.0 mph 95% 0.00 in
02:14 38.0 °F 36.7 °F 29.46 in WSW 8.0 mph 15.0 mph 95% 0.00 in
02:19 37.9 °F 36.6 °F 29.46 in WSW 9.0 mph 17.0 mph 95% 0.00 in
02:24 37.8 °F 36.5 °F 29.46 in WSW 6.0 mph 16.0 mph 95% 0.00 in
02:29 37.8 °F 36.5 °F 29.46 in SW 9.0 mph 13.0 mph 95% 0.01 in
02:34 37.7 °F 36.4 °F 29.47 in WSW 7.0 mph 11.0 mph 95% 0.01 in
02:39 37.7 °F 36.4 °F 29.46 in SW 8.0 mph 13.0 mph 95% 0.01 in
02:44 37.7 °F 36.4 °F 29.46 in WSW 9.0 mph 10.0 mph 95% 0.01 in
02:49 37.7 °F 36.4 °F 29.46 in WSW 5.0 mph 11.0 mph 95% 0.01 in
02:54 37.7 °F 36.4 °F 29.46 in West 7.0 mph 11.0 mph 95% 0.01 in
02:59 37.7 °F 36.4 °F 29.46 in WSW 6.0 mph 11.0 mph 95% 0.01 in
03:04 37.7 °F 36.4 °F 29.47 in WSW 6.0 mph 10.0 mph 95% 0.01 in
03:09 37.7 °F 36.4 °F 29.47 in West 4.0 mph 11.0 mph 95% 0.02 in
03:14 37.7 °F 36.4 °F 29.47 in WSW 6.0 mph 8.0 mph 95% 0.02 in
03:19 37.7 °F 36.4 °F 29.47 in West 4.0 mph 10.0 mph 95% 0.02 in
03:24 37.7 °F 36.4 °F 29.47 in WSW 5.0 mph 12.0 mph 95% 0.02 in
03:29 37.7 °F 36.4 °F 29.48 in WSW 5.0 mph 12.0 mph 95% 0.01 in
03:34 37.7 °F 36.4 °F 29.48 in WSW 6.0 mph 11.0 mph 95% 0.02 in
03:40 37.7 °F 36.4 °F 29.48 in WSW 6.0 mph 11.0 mph 95% 0.02 in
03:49 37.7 °F 36.4 °F 29.48 in SW 3.0 mph 13.0 mph 95% 0.02 in
03:54 37.7 °F 36.4 °F 29.48 in SW 9.0 mph 13.0 mph 95% 0.03 in
03:59 37.7 °F 36.4 °F 29.47 in WSW 6.0 mph 14.0 mph 95% 0.03 in
04:04 37.7 °F 36.4 °F 29.47 in WSW 7.0 mph 14.0 mph 95% 0.03 in
04:09 37.6 °F 36.3 °F 29.48 in WSW 8.0 mph 15.0 mph 95% 0.02 in
04:14 37.7 °F 36.4 °F 29.48 in WNW 6.0 mph 13.0 mph 95% 0.02 in
04:19 37.8 °F 36.5 °F 29.48 in West 4.0 mph 14.0 mph 95% 0.03 in
04:24 37.8 °F 36.5 °F 29.48 in WSW 8.0 mph 17.0 mph 95% 0.04 in
04:29 37.9 °F 36.6 °F 29.48 in WSW 9.0 mph 18.0 mph 95% 0.04 in
04:34 37.9 °F 36.6 °F 29.47 in SW 8.0 mph 14.0 mph 95% 0.03 in
04:39 37.9 °F 36.6 °F 29.47 in SW 9.0 mph 14.0 mph 95% 0.03 in
04:44 37.9 °F 36.6 °F 29.47 in WSW 9.0 mph 14.0 mph 95% 0.03 in
04:49 37.9 °F 36.6 °F 29.47 in West 5.0 mph 12.0 mph 95% 0.03 in
04:54 37.9 °F 36.6 °F 29.48 in SW 13.0 mph 18.0 mph 95% 0.03 in
04:59 37.7 °F 36.4 °F 29.47 in WSW 8.0 mph 18.0 mph 95% 0.03 in
05:04 37.7 °F 36.4 °F 29.48 in WSW 9.0 mph 17.0 mph 95% 0.03 in
05:09 37.7 °F 36.4 °F 29.48 in WSW 8.0 mph 16.0 mph 95% 0.03 in
05:14 37.7 °F 36.4 °F 29.49 in West 13.0 mph 13.0 mph 95% 0.03 in
05:19 37.6 °F 36.3 °F 29.48 in WSW 8.0 mph 15.0 mph 95% 0.02 in
05:24 37.5 °F 35.9 °F 29.49 in SW 10.0 mph 17.0 mph 94% 0.01 in
05:29 37.3 °F 35.7 °F 29.49 in WSW 10.0 mph 18.0 mph 94% 0.02 in
05:34 37.3 °F 35.7 °F 29.49 in WSW 9.0 mph 18.0 mph 94% 0.02 in
05:39 37.1 °F 35.5 °F 29.49 in WSW 10.0 mph 19.0 mph 94% 0.02 in
05:44 37.1 °F 35.5 °F 29.49 in WSW 7.0 mph 17.0 mph 94% 0.02 in
05:49 37.1 °F 35.3 °F 29.49 in SW 6.0 mph 18.0 mph 93% 0.02 in
05:54 37.0 °F 35.2 °F 29.50 in West 8.0 mph 17.0 mph 93% 0.02 in
05:59 36.9 °F 35.1 °F 29.50 in WNW 5.0 mph 22.0 mph 93% 0.02 in
06:04 36.9 °F 35.1 °F 29.50 in WSW 10.0 mph 22.0 mph 93% 0.02 in
06:09 36.9 °F 35.1 °F 29.50 in WSW 10.0 mph 20.0 mph 93% 0.02 in
06:14 36.9 °F 35.1 °F 29.50 in WSW 10.0 mph 20.0 mph 93% 0.02 in
06:19 37.0 °F 35.2 °F 29.51 in WSW 9.0 mph 19.0 mph 93% 0.02 in
06:24 37.0 °F 35.2 °F 29.51 in West 7.0 mph 17.0 mph 93% 0.02 in
06:29 37.1 °F 35.3 °F 29.51 in WSW 6.0 mph 24.0 mph 93% 0.01 in
06:34 37.1 °F 35.3 °F 29.51 in WSW 9.0 mph 24.0 mph 93% 0.01 in
06:39 37.1 °F 35.0 °F 29.51 in WSW 10.0 mph 18.0 mph 92% 0.01 in
06:44 37.1 °F 35.0 °F 29.51 in WSW 11.0 mph 24.0 mph 92% 0.01 in
06:49 37.0 °F 34.9 °F 29.51 in WSW 9.0 mph 19.0 mph 92% 0.01 in
06:54 37.0 °F 34.6 °F 29.51 in West 8.0 mph 20.0 mph 91% 0.00 in
06:59 37.0 °F 34.6 °F 29.52 in WSW 10.0 mph 16.0 mph 91% 0.00 in
07:04 37.0 °F 34.6 °F 29.51 in West 5.0 mph 18.0 mph 91% 0.00 in
07:09 37.0 °F 34.6 °F 29.51 in WSW 9.0 mph 21.0 mph 91% 0.00 in
07:14 37.0 °F 34.9 °F 29.51 in WSW 10.0 mph 21.0 mph 92% 0.00 in
07:19 36.9 °F 34.8 °F 29.51 in WSW 10.0 mph 18.0 mph 92% 0.00 in
07:24 36.9 °F 34.8 °F 29.51 in WSW 9.0 mph 16.0 mph 92% 0.00 in
07:29 36.9 °F 34.8 °F 29.51 in West 12.0 mph 23.0 mph 92% 0.00 in
07:34 36.9 °F 34.8 °F 29.51 in WSW 7.0 mph 19.0 mph 92% 0.00 in
07:39 36.9 °F 34.8 °F 29.51 in WSW 10.0 mph 27.0 mph 92% 0.00 in
07:44 36.8 °F 34.7 °F 29.51 in WSW 10.0 mph 27.0 mph 92% 0.00 in
07:49 36.7 °F 34.6 °F 29.51 in WSW 9.0 mph 19.0 mph 92% 0.00 in
07:54 36.6 °F 34.5 °F 29.51 in West 10.0 mph 21.0 mph 92% 0.00 in
07:59 36.6 °F 34.5 °F 29.51 in WSW 9.0 mph 21.0 mph 92% 0.00 in
08:04 36.6 °F 34.5 °F 29.51 in WNW 6.0 mph 16.0 mph 92% 0.00 in
08:09 36.6 °F 34.5 °F 29.51 in WSW 9.0 mph 18.0 mph 92% 0.00 in
08:14 36.5 °F 34.4 °F 29.51 in WSW 8.0 mph 18.0 mph 92% 0.00 in
08:19 36.4 °F 34.0 °F 29.51 in WSW 7.0 mph 15.0 mph 91% 0.00 in
08:24 36.4 °F 34.0 °F 29.52 in WSW 8.0 mph 17.0 mph 91% 0.00 in
08:29 36.4 °F 34.0 °F 29.52 in WSW 8.0 mph 17.0 mph 91% 0.01 in
08:34 36.1 °F 33.7 °F 29.52 in West 5.0 mph 16.0 mph 91% 0.01 in
08:39 36.0 °F 33.6 °F 29.52 in WSW 7.0 mph 16.0 mph 91% 0.01 in
08:44 35.8 °F 33.2 °F 29.52 in West 8.0 mph 16.0 mph 90% 0.01 in
08:49 35.7 °F 33.1 °F 29.52 in West 8.0 mph 16.0 mph 90% 0.01 in
08:54 35.6 °F 33.0 °F 29.52 in SW 6.0 mph 14.0 mph 90% 0.01 in
08:59 35.5 °F 32.9 °F 29.52 in SSW 8.0 mph 14.0 mph 90% 0.02 in
09:04 35.5 °F 32.9 °F 29.52 in WSW 7.0 mph 19.0 mph 90% 0.02 in
09:09 35.4 °F 32.8 °F 29.52 in WSW 7.0 mph 25.0 mph 90% 0.02 in
09:14 35.4 °F 32.8 °F 29.52 in WSW 7.0 mph 17.0 mph 90% 0.02 in
09:19 35.2 °F 32.6 °F 29.52 in WSW 9.0 mph 21.0 mph 90% 0.02 in
09:24 34.6 °F 32.0 °F 29.53 in WSW 10.0 mph 21.0 mph 90% 0.02 in
09:29 34.5 °F 31.6 °F 29.53 in West 10.0 mph 19.0 mph 89% 0.01 in
09:34 34.5 °F 31.3 °F 29.53 in SW 8.0 mph 22.0 mph 88% 0.01 in
09:39 34.7 °F 30.7 °F 29.53 in SW 16.0 mph 24.0 mph 85% 0.02 in
09:44 34.8 °F 30.5 °F 29.53 in West 17.0 mph 24.0 mph 84% 0.02 in
09:49 34.8 °F 30.5 °F 29.53 in WSW 8.0 mph 25.0 mph 84% 0.02 in
09:54 34.7 °F 30.4 °F 29.54 in WSW 13.0 mph 25.0 mph 84% 0.02 in
09:59 34.6 °F 30.6 °F 29.54 in WSW 11.0 mph 25.0 mph 85% 0.01 in
10:04 34.5 °F 30.7 °F 29.54 in WSW 10.0 mph 25.0 mph 86% 0.01 in
10:09 34.4 °F 30.6 °F 29.55 in WSW 15.0 mph 18.0 mph 86% 0.01 in
10:14 34.4 °F 30.1 °F 29.55 in WSW 17.0 mph 22.0 mph 84% 0.01 in
10:19 34.4 °F 29.8 °F 29.55 in WNW 8.0 mph 20.0 mph 83% 0.01 in
10:24 34.4 °F 29.8 °F 29.55 in WSW 9.0 mph 20.0 mph 83% 0.01 in
10:29 34.2 °F 29.3 °F 29.56 in WSW 11.0 mph 24.0 mph 82% 0.01 in
10:34 33.9 °F 28.4 °F 29.56 in WSW 14.0 mph 24.0 mph 80% 0.01 in
10:39 33.5 °F 27.7 °F 29.55 in WSW 14.0 mph 25.0 mph 79% 0.00 in
10:44 33.3 °F 27.8 °F 29.56 in West 20.0 mph 31.0 mph 80% 0.00 in
10:49 33.1 °F 27.3 °F 29.56 in WSW 11.0 mph 29.0 mph 79% 0.00 in
10:54 33.1 °F 27.0 °F 29.56 in SSW 11.0 mph 28.0 mph 78% 0.00 in
10:59 32.9 °F 26.8 °F 29.56 in WSW 9.0 mph 27.0 mph 78% 0.00 in
11:04 32.6 °F 26.5 °F 29.56 in WSW 14.0 mph 29.0 mph 78% 0.00 in
11:09 32.4 °F 26.0 °F 29.56 in WSW 15.0 mph 29.0 mph 77% 0.00 in
11:14 32.3 °F 24.9 °F 29.56 in WSW 15.0 mph 28.0 mph 74% 0.00 in
11:19 32.4 °F 24.7 °F 29.56 in SW 20.0 mph 29.0 mph 73% 0.00 in
11:24 32.4 °F 24.0 °F 29.56 in West 12.0 mph 24.0 mph 71% 0.00 in
11:29 32.5 °F 24.1 °F 29.56 in WSW 13.0 mph 28.0 mph 71% 0.00 in
11:34 32.3 °F 23.9 °F 29.56 in West 15.0 mph 26.0 mph 71% 0.00 in
11:39 31.9 °F 23.9 °F 29.57 in WSW 7.0 mph 23.0 mph 72% 0.00 in
11:44 31.7 °F 24.0 °F 29.57 in WSW 16.0 mph 28.0 mph 73% 0.00 in
11:49 31.4 °F 23.4 °F 29.56 in NW 17.0 mph 29.0 mph 72% 0.00 in
11:54 31.4 °F 24.1 °F 29.56 in WSW 14.0 mph 29.0 mph 74% 0.00 in
11:59 31.3 °F 23.6 °F 29.57 in WSW 25.0 mph 25.0 mph 73% 0.00 in
12:04 31.1 °F 23.1 °F 29.56 in WSW 11.0 mph 25.0 mph 72% 0.00 in
12:09 30.9 °F 22.3 °F 29.56 in WSW 14.0 mph 27.0 mph 70% 0.00 in
12:14 30.7 °F 21.4 °F 29.57 in WSW 16.0 mph 27.0 mph 68% 0.00 in
12:19 30.6 °F 22.3 °F 29.57 in WSW 13.0 mph 27.0 mph 71% 0.00 in
12:24 30.3 °F 22.7 °F 29.57 in WSW 12.0 mph 24.0 mph 73% 0.00 in
12:29 29.8 °F 22.5 °F 29.58 in WSW 14.0 mph 24.0 mph 74% 0.00 in
12:34 29.2 °F 21.9 °F 29.57 in SSW 10.0 mph 29.0 mph 74% 0.00 in
12:39 29.1 °F 21.5 °F 29.57 in WSW 15.0 mph 29.0 mph 73% 0.00 in
12:44 29.0 °F 22.1 °F 29.57 in West 6.0 mph 24.0 mph 75% 0.00 in
12:49 28.9 °F 22.3 °F 29.58 in WSW 9.0 mph 30.0 mph 76% 0.00 in
12:54 29.0 °F 22.1 °F 29.57 in WSW 11.0 mph 18.0 mph 75% 0.00 in
12:59 28.9 °F 21.0 °F 29.58 in West 16.0 mph 27.0 mph 72% 0.00 in
13:04 28.7 °F 20.1 °F 29.58 in West 22.0 mph 30.0 mph 70% 0.00 in
13:09 28.6 °F 19.4 °F 29.58 in WSW 16.0 mph 33.0 mph 68% 0.00 in
13:14 28.8 °F 19.2 °F 29.58 in WSW 15.0 mph 33.0 mph 67% 0.00 in
13:19 30.1 °F 19.7 °F 29.58 in West 13.0 mph 25.0 mph 65% 0.00 in
13:24 30.3 °F 19.9 °F 29.58 in West 13.0 mph 24.0 mph 65% 0.00 in
13:29 29.5 °F 18.1 °F 29.58 in WSW 15.0 mph 32.0 mph 62% 0.00 in
13:34 29.2 °F 18.2 °F 29.58 in West 9.0 mph 24.0 mph 63% 0.00 in
13:39 28.8 °F 18.1 °F 29.59 in WSW 12.0 mph 23.0 mph 64% 0.00 in
13:44 28.2 °F 17.9 °F 29.59 in WSW 14.0 mph 32.0 mph 65% 0.00 in
13:49 27.9 °F 18.0 °F 29.60 in WSW 15.0 mph 33.0 mph 66% 0.00 in
13:54 27.7 °F 19.2 °F 29.60 in WSW 11.0 mph 33.0 mph 70% 0.00 in
13:59 27.6 °F 18.8 °F 29.60 in WSW 7.0 mph 24.0 mph 69% 0.00 in
14:04 27.2 °F 19.0 °F 29.60 in West 13.0 mph 28.0 mph 71% 0.00 in
14:09 26.7 °F 20.1 °F 29.60 in WNW 10.0 mph 15.0 mph 76% 0.00 in
14:14 26.6 °F 20.4 °F 29.60 in West 12.0 mph 16.0 mph 77% 0.00 in
14:19 26.4 °F 19.5 °F 29.61 in West 9.0 mph 20.0 mph 75% 0.00 in
14:24 26.1 °F 19.6 °F 29.61 in West 11.0 mph 23.0 mph 76% 0.00 in
14:29 25.5 °F 19.6 °F 29.62 in West 10.0 mph 23.0 mph 78% 0.00 in
14:34 25.0 °F 19.4 °F 29.62 in West 11.0 mph 24.0 mph 79% 0.00 in
14:39 24.6 °F 18.4 °F 29.62 in West 11.0 mph 24.0 mph 77% 0.00 in
14:44 24.3 °F 18.7 °F 29.63 in West 11.0 mph 20.0 mph 79% 0.00 in
14:49 24.0 °F 19.0 °F 29.63 in West 10.0 mph 20.0 mph 81% 0.00 in
14:54 23.7 °F 19.0 °F 29.64 in West 11.0 mph 19.0 mph 82% 0.00 in
14:59 23.3 °F 18.6 °F 29.64 in WSW 7.0 mph 17.0 mph 82% 0.00 in
15:04 23.1 °F 18.7 °F 29.65 in North 8.0 mph 17.0 mph 83% 0.00 in
15:09 22.7 °F 17.7 °F 29.65 in SW 14.0 mph 20.0 mph 81% 0.00 in
15:14 22.4 °F 17.2 °F 29.66 in West 9.0 mph 23.0 mph 80% 0.00 in
15:19 22.1 °F 16.3 °F 29.65 in West 12.0 mph 23.0 mph 78% 0.00 in
15:24 22.1 °F 16.0 °F 29.66 in West 11.0 mph 22.0 mph 77% 0.00 in
15:29 22.0 °F 16.5 °F 29.66 in West 9.0 mph 20.0 mph 79% 0.00 in
15:34 21.9 °F 16.1 °F 29.66 in West 8.0 mph 16.0 mph 78% 0.00 in
15:39 21.9 °F 15.2 °F 29.67 in West 9.0 mph 19.0 mph 75% 0.00 in
15:44 21.6 °F 14.9 °F 29.67 in WNW 13.0 mph 23.0 mph 75% 0.00 in
15:49 21.4 °F 14.7 °F 29.67 in West 12.0 mph 17.0 mph 75% 0.00 in
15:54 21.6 °F 14.0 °F 29.67 in West 9.0 mph 18.0 mph 72% 0.00 in
15:59 21.6 °F 14.6 °F 29.67 in WSW 10.0 mph 21.0 mph 74% 0.00 in
16:04 21.5 °F 13.9 °F 29.68 in West 9.0 mph 20.0 mph 72% 0.00 in
16:09 21.5 °F 13.9 °F 29.67 in WNW 15.0 mph 21.0 mph 72% 0.00 in
16:14 21.4 °F 13.1 °F 29.68 in NW 11.0 mph 19.0 mph 70% 0.00 in
16:19 21.3 °F 13.0 °F 29.68 in West 11.0 mph 21.0 mph 70% 0.00 in
16:24 21.3 °F 12.4 °F 29.68 in West 10.0 mph 22.0 mph 68% 0.00 in
16:29 21.2 °F 11.6 °F 29.68 in WSW 6.0 mph 17.0 mph 66% 0.00 in
16:34 21.2 °F 11.9 °F 29.69 in West 9.0 mph 21.0 mph 67% 0.00 in
16:39 21.1 °F 11.5 °F 29.69 in WNW 7.0 mph 21.0 mph 66% 0.00 in
16:44 21.0 °F 11.8 °F 29.69 in SW 15.0 mph 20.0 mph 67% 0.00 in
16:49 21.0 °F 12.1 °F 29.69 in NW 8.0 mph 16.0 mph 68% 0.00 in
16:54 20.9 °F 11.0 °F 29.69 in West 8.0 mph 19.0 mph 65% 0.00 in
16:59 21.0 °F 11.4 °F 29.69 in West 9.0 mph 19.0 mph 66% 0.00 in
17:04 20.9 °F 11.3 °F 29.69 in West 9.0 mph 18.0 mph 66% 0.00 in
17:09 20.9 °F 11.7 °F 29.69 in West 8.0 mph 18.0 mph 67% 0.00 in
17:14 21.0 °F 11.8 °F 29.69 in West 8.0 mph 18.0 mph 67% 0.00 in
17:19 21.1 °F 11.8 °F 29.69 in West 7.0 mph 15.0 mph 67% 0.00 in
17:24 21.1 °F 11.8 °F 29.69 in WNW 15.0 mph 17.0 mph 67% 0.00 in
17:29 21.2 °F 11.9 °F 29.69 in West 13.0 mph 16.0 mph 67% 0.00 in
17:34 21.1 °F 12.2 °F 29.69 in West 6.0 mph 18.0 mph 68% 0.00 in
17:39 21.1 °F 12.8 °F 29.70 in West 6.0 mph 15.0 mph 70% 0.00 in
18:00 20.6 °F 13.6 °F 29.70 in West 8.0 mph 15.0 mph 74% 0.00 in
18:05 20.5 °F 14.4 °F 29.70 in WSW 9.0 mph 19.0 mph 77% 0.00 in
18:14 20.3 °F 14.5 °F 29.69 in West 7.0 mph 14.0 mph 78% 0.00 in
18:19 20.3 °F 13.9 °F 29.70 in West 7.0 mph 15.0 mph 76% 0.00 in
18:24 20.6 °F 13.9 °F 29.70 in WSW 6.0 mph 15.0 mph 75% 0.00 in
18:29 20.7 °F 12.8 °F 29.70 in WNW 16.0 mph 17.0 mph 71% 0.00 in
18:34 20.9 °F 12.0 °F 29.70 in West 9.0 mph 20.0 mph 68% 0.00 in
18:39 21.0 °F 11.8 °F 29.70 in West 11.0 mph 21.0 mph 67% 0.00 in
18:44 21.1 °F 11.5 °F 29.70 in West 10.0 mph 21.0 mph 66% 0.00 in
18:49 21.2 °F 11.6 °F 29.70 in WSW 9.0 mph 21.0 mph 66% 0.00 in
18:54 21.2 °F 10.9 °F 29.70 in West 7.0 mph 17.0 mph 64% 0.00 in
18:59 21.4 °F 11.1 °F 29.70 in West 13.0 mph 20.0 mph 64% 0.00 in
19:04 21.4 °F 10.7 °F 29.70 in West 9.0 mph 21.0 mph 63% 0.00 in
19:09 21.4 °F 10.4 °F 29.70 in West 11.0 mph 23.0 mph 62% 0.00 in
19:14 21.4 °F 10.4 °F 29.70 in West 19.0 mph 21.0 mph 62% 0.00 in
19:19 21.3 °F 10.7 °F 29.71 in West 13.0 mph 28.0 mph 63% 0.00 in
19:24 20.9 °F 10.3 °F 29.71 in WNW 12.0 mph 26.0 mph 63% 0.00 in
19:29 20.7 °F 10.8 °F 29.71 in West 13.0 mph 26.0 mph 65% 0.00 in
19:34 20.7 °F 10.4 °F 29.71 in West 13.0 mph 24.0 mph 64% 0.00 in
19:39 20.6 °F 10.0 °F 29.71 in WSW 15.0 mph 25.0 mph 63% 0.00 in
19:44 20.6 °F 10.3 °F 29.72 in West 11.0 mph 25.0 mph 64% 0.00 in
19:49 20.4 °F 9.8 °F 29.73 in West 10.0 mph 23.0 mph 63% 0.00 in
19:54 20.2 °F 8.5 °F 29.73 in West 12.0 mph 25.0 mph 60% 0.00 in
19:59 19.9 °F 7.9 °F 29.73 in West 10.0 mph 25.0 mph 59% 0.00 in
20:04 19.6 °F 8.0 °F 29.74 in WSW 8.0 mph 24.0 mph 60% 0.00 in
20:09 19.5 °F 8.2 °F 29.74 in West 10.0 mph 22.0 mph 61% 0.00 in
20:14 19.2 °F 7.9 °F 29.75 in West 5.0 mph 23.0 mph 61% 0.00 in
20:19 19.1 °F 8.2 °F 29.75 in West 12.0 mph 18.0 mph 62% 0.00 in
20:24 19.0 °F 7.7 °F 29.75 in WNW 13.0 mph 22.0 mph 61% 0.00 in
20:29 18.8 °F 7.6 °F 29.76 in WNW 8.0 mph 23.0 mph 61% 0.00 in
20:34 18.6 °F 7.4 °F 29.76 in WNW 16.0 mph 22.0 mph 61% 0.00 in
20:39 18.5 °F 7.3 °F 29.77 in West 12.0 mph 24.0 mph 61% 0.00 in
20:44 18.4 °F 7.2 °F 29.77 in West 11.0 mph 24.0 mph 61% 0.00 in
20:49 18.3 °F 6.7 °F 29.77 in West 11.0 mph 24.0 mph 60% 0.00 in
20:54 18.2 °F 6.6 °F 29.77 in West 12.0 mph 24.0 mph 60% 0.00 in
20:59 18.2 °F 6.6 °F 29.77 in West 12.0 mph 23.0 mph 60% 0.00 in
21:04 18.1 °F 6.9 °F 29.77 in West 7.0 mph 20.0 mph 61% 0.00 in
21:09 18.1 °F 6.5 °F 29.78 in WSW 14.0 mph 26.0 mph 60% 0.00 in
21:14 18.1 °F 6.2 °F 29.77 in West 11.0 mph 26.0 mph 59% 0.00 in
21:19 18.1 °F 6.2 °F 29.77 in West 10.0 mph 19.0 mph 59% 0.00 in
21:24 18.2 °F 6.3 °F 29.77 in NW 16.0 mph 27.0 mph 59% 0.00 in
21:29 18.2 °F 6.3 °F 29.77 in West 15.0 mph 25.0 mph 59% 0.00 in
21:34 18.2 °F 5.9 °F 29.77 in WNW 7.0 mph 26.0 mph 58% 0.00 in
21:39 18.3 °F 6.4 °F 29.77 in West 16.0 mph 22.0 mph 59% 0.00 in
21:44 18.3 °F 6.0 °F 29.78 in West 12.0 mph 26.0 mph 58% 0.00 in
21:49 18.4 °F 6.1 °F 29.77 in West 12.0 mph 26.0 mph 58% 0.00 in
21:54 18.5 °F 6.2 °F 29.77 in West 11.0 mph 26.0 mph 58% 0.00 in
21:59 18.5 °F 5.8 °F 29.77 in West 12.0 mph 26.0 mph 57% 0.00 in
22:04 18.7 °F 6.7 °F 29.77 in West 11.0 mph 26.0 mph 59% 0.00 in
22:09 18.8 °F 6.1 °F 29.78 in WSW 8.0 mph 24.0 mph 57% 0.00 in
22:14 18.9 °F 6.5 °F 29.77 in West 12.0 mph 28.0 mph 58% 0.00 in
22:19 18.9 °F 6.9 °F 29.78 in West 11.0 mph 28.0 mph 59% 0.00 in
22:24 19.0 °F 6.6 °F 29.78 in NW 8.0 mph 26.0 mph 58% 0.00 in
22:29 19.0 °F 6.6 °F 29.78 in WSW 18.0 mph 23.0 mph 58% 0.00 in
22:34 19.0 °F 7.0 °F 29.77 in West 6.0 mph 24.0 mph 59% 0.00 in
22:39 19.0 °F 6.6 °F 29.78 in West 12.0 mph 32.0 mph 58% 0.00 in
22:44 19.0 °F 7.0 °F 29.78 in WNW 24.0 mph 28.0 mph 59% 0.00 in
22:49 19.0 °F 7.0 °F 29.78 in WNW 13.0 mph 28.0 mph 59% 0.00 in
22:54 19.0 °F 7.4 °F 29.78 in West 12.0 mph 26.0 mph 60% 0.00 in
22:59 19.1 °F 7.1 °F 29.78 in West 10.0 mph 20.0 mph 59% 0.00 in
23:04 19.1 °F 7.8 °F 29.78 in West 10.0 mph 18.0 mph 61% 0.00 in
23:09 19.2 °F 7.6 °F 29.78 in West 10.0 mph 24.0 mph 60% 0.00 in
23:14 19.2 °F 7.6 °F 29.78 in West 12.0 mph 24.0 mph 60% 0.00 in
23:19 19.2 °F 7.9 °F 29.78 in WNW 17.0 mph 25.0 mph 61% 0.00 in
23:24 19.2 °F 7.9 °F 29.78 in West 8.0 mph 19.0 mph 61% 0.00 in
23:29 19.1 °F 7.1 °F 29.78 in West 9.0 mph 23.0 mph 59% 0.00 in
23:34 19.2 °F 7.6 °F 29.78 in West 12.0 mph 27.0 mph 60% 0.00 in
23:39 19.2 °F 7.6 °F 29.78 in West 12.0 mph 30.0 mph 60% 0.00 in
23:44 19.1 °F 7.8 °F 29.78 in WSW 11.0 mph 18.0 mph 61% 0.00 in
23:49 19.0 °F 7.7 °F 29.78 in WSW 11.0 mph 27.0 mph 61% 0.00 in
23:54 19.0 °F 8.1 °F 29.78 in West 13.0 mph 27.0 mph 62% 0.00 in
23:59 18.9 °F 8.4 °F 29.78 in West 12.0 mph 26.0 mph 63% 0.00 in
Buffalo, New York, USA
Compliments of Weather Underground - 2.5 mb